sensor_id;sensor_type;location;lat;lon;timestamp;temperature;humidity
55369;DHT22;41247;49.736;8.752;2022-12-07T00:00:36;2.20;99.90
55369;DHT22;41247;49.736;8.752;2022-12-07T00:04:17;2.30;99.90
55369;DHT22;41247;49.736;8.752;2022-12-07T00:07:58;2.20;99.90
55369;DHT22;41247;49.736;8.752;2022-12-07T00:11:39;2.20;99.90
55369;DHT22;41247;49.736;8.752;2022-12-07T00:15:19;2.20;99.90
55369;DHT22;41247;49.736;8.752;2022-12-07T00:19:00;2.20;99.90
55369;DHT22;41247;49.736;8.752;2022-12-07T00:22:41;2.20;99.90
55369;DHT22;41247;49.736;8.752;2022-12-07T00:26:24;2.20;99.90
55369;DHT22;41247;49.736;8.752;2022-12-07T00:30:05;2.30;99.90
55369;DHT22;41247;49.736;8.752;2022-12-07T00:33:47;2.20;99.90
55369;DHT22;41247;49.736;8.752;2022-12-07T00:37:28;2.20;99.90
55369;DHT22;41247;49.736;8.752;2022-12-07T00:41:27;2.20;99.90
55369;DHT22;41247;49.736;8.752;2022-12-07T00:45:09;2.20;99.90
55369;DHT22;41247;49.736;8.752;2022-12-07T00:48:51;2.20;99.90
55369;DHT22;41247;49.736;8.752;2022-12-07T00:52:32;2.20;99.90
55369;DHT22;41247;49.736;8.752;2022-12-07T00:56:16;2.20;99.90
55369;DHT22;41247;49.736;8.752;2022-12-07T01:00:01;2.20;99.90
55369;DHT22;41247;49.736;8.752;2022-12-07T01:03:41;2.20;99.90
55369;DHT22;41247;49.736;8.752;2022-12-07T01:07:22;2.20;99.90
55369;DHT22;41247;49.736;8.752;2022-12-07T01:11:07;2.20;99.90
55369;DHT22;41247;49.736;8.752;2022-12-07T01:14:49;2.20;99.90
55369;DHT22;41247;49.736;8.752;2022-12-07T01:18:32;2.20;99.90
55369;DHT22;41247;49.736;8.752;2022-12-07T01:22:14;2.20;99.90
55369;DHT22;41247;49.736;8.752;2022-12-07T01:25:56;2.20;99.90
55369;DHT22;41247;49.736;8.752;2022-12-07T01:29:38;2.10;99.90
55369;DHT22;41247;49.736;8.752;2022-12-07T01:33:18;2.10;99.90
55369;DHT22;41247;49.736;8.752;2022-12-07T01:36:59;2.00;99.90
55369;DHT22;41247;49.736;8.752;2022-12-07T01:40:39;2.00;99.90
55369;DHT22;41247;49.736;8.752;2022-12-07T01:44:26;2.00;99.90
55369;DHT22;41247;49.736;8.752;2022-12-07T01:48:10;2.00;99.90
55369;DHT22;41247;49.736;8.752;2022-12-07T01:51:57;2.00;99.90
55369;DHT22;41247;49.736;8.752;2022-12-07T01:55:44;2.10;99.90
55369;DHT22;41247;49.736;8.752;2022-12-07T01:59:26;2.10;99.90
55369;DHT22;41247;49.736;8.752;2022-12-07T02:07:00;2.10;99.90
55369;DHT22;41247;49.736;8.752;2022-12-07T02:10:40;2.10;99.90
55369;DHT22;41247;49.736;8.752;2022-12-07T02:14:21;2.00;99.90
55369;DHT22;41247;49.736;8.752;2022-12-07T02:18:21;2.00;99.90
55369;DHT22;41247;49.736;8.752;2022-12-07T02:26:45;2.00;99.90
55369;DHT22;41247;49.736;8.752;2022-12-07T02:30:56;2.00;99.90
55369;DHT22;41247;49.736;8.752;2022-12-07T02:34:55;2.00;99.90
55369;DHT22;41247;49.736;8.752;2022-12-07T02:39:00;2.00;99.90
55369;DHT22;41247;49.736;8.752;2022-12-07T02:42:48;2.00;99.90
55369;DHT22;41247;49.736;8.752;2022-12-07T02:46:40;2.00;99.90
55369;DHT22;41247;49.736;8.752;2022-12-07T02:50:23;2.00;99.90
55369;DHT22;41247;49.736;8.752;2022-12-07T02:54:19;2.00;99.90
55369;DHT22;41247;49.736;8.752;2022-12-07T03:02:25;2.00;99.90
55369;DHT22;41247;49.736;8.752;2022-12-07T03:06:22;2.00;99.90
55369;DHT22;41247;49.736;8.752;2022-12-07T03:14:30;2.00;99.90
55369;DHT22;41247;49.736;8.752;2022-12-07T03:18:16;2.00;99.90
55369;DHT22;41247;49.736;8.752;2022-12-07T03:22:17;2.10;99.90
55369;DHT22;41247;49.736;8.752;2022-12-07T03:26:00;2.10;99.90
55369;DHT22;41247;49.736;8.752;2022-12-07T03:29:46;2.10;99.90
55369;DHT22;41247;49.736;8.752;2022-12-07T03:38:02;2.00;99.90
55369;DHT22;41247;49.736;8.752;2022-12-07T03:41:51;2.00;99.90
55369;DHT22;41247;49.736;8.752;2022-12-07T03:45:38;1.90;99.90
55369;DHT22;41247;49.736;8.752;2022-12-07T03:53:17;1.70;99.90
55369;DHT22;41247;49.736;8.752;2022-12-07T03:57:01;1.60;99.90
55369;DHT22;41247;49.736;8.752;2022-12-07T04:00:43;1.50;99.90
55369;DHT22;41247;49.736;8.752;2022-12-07T04:04:29;1.50;99.90
55369;DHT22;41247;49.736;8.752;2022-12-07T04:08:10;1.50;99.90
55369;DHT22;41247;49.736;8.752;2022-12-07T04:11:50;1.50;99.90
55369;DHT22;41247;49.736;8.752;2022-12-07T04:15:31;1.50;99.90
55369;DHT22;41247;49.736;8.752;2022-12-07T04:19:12;1.40;99.90
55369;DHT22;41247;49.736;8.752;2022-12-07T04:22:53;1.40;99.90
55369;DHT22;41247;49.736;8.752;2022-12-07T04:26:33;1.30;99.90
55369;DHT22;41247;49.736;8.752;2022-12-07T04:30:14;1.30;99.90
55369;DHT22;41247;49.736;8.752;2022-12-07T04:33:55;1.20;99.90
55369;DHT22;41247;49.736;8.752;2022-12-07T04:37:35;1.20;99.90
55369;DHT22;41247;49.736;8.752;2022-12-07T04:41:16;1.20;99.90
55369;DHT22;41247;49.736;8.752;2022-12-07T04:44:57;1.20;99.90
55369;DHT22;41247;49.736;8.752;2022-12-07T04:48:37;1.20;99.90
55369;DHT22;41247;49.736;8.752;2022-12-07T04:52:18;1.30;99.90
55369;DHT22;41247;49.736;8.752;2022-12-07T04:55:58;1.20;99.90
55369;DHT22;41247;49.736;8.752;2022-12-07T04:59:39;1.20;99.90
55369;DHT22;41247;49.736;8.752;2022-12-07T05:03:19;1.30;99.90
55369;DHT22;41247;49.736;8.752;2022-12-07T05:07:00;1.20;99.90
55369;DHT22;41247;49.736;8.752;2022-12-07T05:10:41;1.20;99.90
55369;DHT22;41247;49.736;8.752;2022-12-07T05:14:21;1.20;99.90
55369;DHT22;41247;49.736;8.752;2022-12-07T05:18:02;1.30;99.90
55369;DHT22;41247;49.736;8.752;2022-12-07T05:21:43;1.30;99.90
55369;DHT22;41247;49.736;8.752;2022-12-07T05:25:23;1.30;99.90
55369;DHT22;41247;49.736;8.752;2022-12-07T05:29:04;1.30;99.90
55369;DHT22;41247;49.736;8.752;2022-12-07T05:33:16;1.30;99.90
55369;DHT22;41247;49.736;8.752;2022-12-07T05:36:58;1.30;99.90
55369;DHT22;41247;49.736;8.752;2022-12-07T05:40:38;1.30;99.90
55369;DHT22;41247;49.736;8.752;2022-12-07T05:44:19;1.30;99.90
55369;DHT22;41247;49.736;8.752;2022-12-07T05:48:18;1.40;99.90
55369;DHT22;41247;49.736;8.752;2022-12-07T05:57:00;1.40;99.90
55369;DHT22;41247;49.736;8.752;2022-12-07T06:00:41;1.40;99.90
55369;DHT22;41247;49.736;8.752;2022-12-07T06:04:23;1.50;99.90
55369;DHT22;41247;49.736;8.752;2022-12-07T06:08:04;1.50;99.90
55369;DHT22;41247;49.736;8.752;2022-12-07T06:12:16;1.50;99.90
55369;DHT22;41247;49.736;8.752;2022-12-07T06:16:27;1.50;99.90
55369;DHT22;41247;49.736;8.752;2022-12-07T06:20:26;1.50;99.90
55369;DHT22;41247;49.736;8.752;2022-12-07T06:24:07;1.60;99.90
55369;DHT22;41247;49.736;8.752;2022-12-07T06:37:13;1.60;99.90
55369;DHT22;41247;49.736;8.752;2022-12-07T06:41:21;1.60;99.90
55369;DHT22;41247;49.736;8.752;2022-12-07T06:45:03;1.70;99.90
55369;DHT22;41247;49.736;8.752;2022-12-07T06:48:53;1.60;99.90
55369;DHT22;41247;49.736;8.752;2022-12-07T06:52:34;1.70;99.90
55369;DHT22;41247;49.736;8.752;2022-12-07T06:56:37;1.70;99.90
55369;DHT22;41247;49.736;8.752;2022-12-07T07:05:56;1.70;99.90
55369;DHT22;41247;49.736;8.752;2022-12-07T07:19:09;1.80;99.90
55369;DHT22;41247;49.736;8.752;2022-12-07T07:22:59;1.80;99.90
55369;DHT22;41247;49.736;8.752;2022-12-07T07:26:55;1.80;99.90
55369;DHT22;41247;49.736;8.752;2022-12-07T07:30:37;1.80;99.90
55369;DHT22;41247;49.736;8.752;2022-12-07T07:34:38;1.80;99.90
55369;DHT22;41247;49.736;8.752;2022-12-07T07:38:35;1.80;99.90
55369;DHT22;41247;49.736;8.752;2022-12-07T07:42:15;1.80;99.90
55369;DHT22;41247;49.736;8.752;2022-12-07T07:54:54;1.90;99.90
55369;DHT22;41247;49.736;8.752;2022-12-07T07:58:34;1.90;99.90
55369;DHT22;41247;49.736;8.752;2022-12-07T08:02:17;1.90;99.90
55369;DHT22;41247;49.736;8.752;2022-12-07T08:05:59;2.00;99.90
55369;DHT22;41247;49.736;8.752;2022-12-07T08:09:40;2.00;99.90
55369;DHT22;41247;49.736;8.752;2022-12-07T08:13:21;2.00;99.90
55369;DHT22;41247;49.736;8.752;2022-12-07T08:17:02;2.10;99.90
55369;DHT22;41247;49.736;8.752;2022-12-07T08:20:43;2.10;99.90
55369;DHT22;41247;49.736;8.752;2022-12-07T08:24:23;2.20;99.90
55369;DHT22;41247;49.736;8.752;2022-12-07T08:28:04;2.20;99.90
55369;DHT22;41247;49.736;8.752;2022-12-07T08:31:45;2.20;99.90
55369;DHT22;41247;49.736;8.752;2022-12-07T08:35:26;2.30;99.90
55369;DHT22;41247;49.736;8.752;2022-12-07T08:39:06;2.30;99.90
55369;DHT22;41247;49.736;8.752;2022-12-07T08:42:51;2.30;99.90
55369;DHT22;41247;49.736;8.752;2022-12-07T08:46:35;2.30;99.90
55369;DHT22;41247;49.736;8.752;2022-12-07T08:50:19;2.30;99.90
55369;DHT22;41247;49.736;8.752;2022-12-07T08:54:02;2.30;99.90
55369;DHT22;41247;49.736;8.752;2022-12-07T08:57:44;2.40;99.90
55369;DHT22;41247;49.736;8.752;2022-12-07T09:01:25;2.40;99.90
55369;DHT22;41247;49.736;8.752;2022-12-07T09:05:06;2.40;99.90
55369;DHT22;41247;49.736;8.752;2022-12-07T09:08:51;2.40;99.90
55369;DHT22;41247;49.736;8.752;2022-12-07T09:12:34;2.40;99.90
55369;DHT22;41247;49.736;8.752;2022-12-07T09:16:15;2.40;99.90
55369;DHT22;41247;49.736;8.752;2022-12-07T09:19:55;2.40;99.90
55369;DHT22;41247;49.736;8.752;2022-12-07T09:23:36;2.40;99.90
55369;DHT22;41247;49.736;8.752;2022-12-07T09:27:17;2.40;99.90
55369;DHT22;41247;49.736;8.752;2022-12-07T09:30:57;2.40;99.90
55369;DHT22;41247;49.736;8.752;2022-12-07T09:34:38;2.40;99.90
55369;DHT22;41247;49.736;8.752;2022-12-07T09:38:19;2.40;99.90
55369;DHT22;41247;49.736;8.752;2022-12-07T09:42:03;2.50;99.90
55369;DHT22;41247;49.736;8.752;2022-12-07T09:45:48;2.60;99.90
55369;DHT22;41247;49.736;8.752;2022-12-07T09:49:32;2.70;99.90
55369;DHT22;41247;49.736;8.752;2022-12-07T09:53:23;2.80;99.90
55369;DHT22;41247;49.736;8.752;2022-12-07T09:57:07;2.80;99.90
55369;DHT22;41247;49.736;8.752;2022-12-07T10:04:47;2.80;99.90
55369;DHT22;41247;49.736;8.752;2022-12-07T10:08:28;2.90;99.90
55369;DHT22;41247;49.736;8.752;2022-12-07T10:12:11;2.90;99.90
55369;DHT22;41247;49.736;8.752;2022-12-07T10:15:56;3.00;99.90
55369;DHT22;41247;49.736;8.752;2022-12-07T10:19:37;3.10;99.90
55369;DHT22;41247;49.736;8.752;2022-12-07T10:23:18;3.20;99.90
55369;DHT22;41247;49.736;8.752;2022-12-07T10:26:59;3.20;99.90
55369;DHT22;41247;49.736;8.752;2022-12-07T10:30:59;3.20;99.90
55369;DHT22;41247;49.736;8.752;2022-12-07T10:34:42;3.20;99.90
55369;DHT22;41247;49.736;8.752;2022-12-07T10:38:25;3.20;99.90
55369;DHT22;41247;49.736;8.752;2022-12-07T10:42:08;3.20;99.90
55369;DHT22;41247;49.736;8.752;2022-12-07T10:46:19;3.30;99.90
55369;DHT22;41247;49.736;8.752;2022-12-07T10:50:43;3.30;99.90
55369;DHT22;41247;49.736;8.752;2022-12-07T10:54:45;3.20;99.90
55369;DHT22;41247;49.736;8.752;2022-12-07T10:58:46;3.20;99.90
55369;DHT22;41247;49.736;8.752;2022-12-07T11:07:22;3.20;99.90
55369;DHT22;41247;49.736;8.752;2022-12-07T11:11:42;3.20;99.90
55369;DHT22;41247;49.736;8.752;2022-12-07T11:15:49;3.30;99.90
55369;DHT22;41247;49.736;8.752;2022-12-07T11:24:10;3.50;99.90
55369;DHT22;41247;49.736;8.752;2022-12-07T11:39:46;3.70;99.90
55369;DHT22;41247;49.736;8.752;2022-12-07T11:47:45;3.80;99.90
55369;DHT22;41247;49.736;8.752;2022-12-07T11:51:26;3.90;99.90
55369;DHT22;41247;49.736;8.752;2022-12-07T11:59:40;3.90;99.90
55369;DHT22;41247;49.736;8.752;2022-12-07T12:03:30;3.90;99.90
55369;DHT22;41247;49.736;8.752;2022-12-07T12:07:19;4.00;99.90
55369;DHT22;41247;49.736;8.752;2022-12-07T12:23:19;4.10;99.90
55369;DHT22;41247;49.736;8.752;2022-12-07T12:27:07;4.20;99.90
55369;DHT22;41247;49.736;8.752;2022-12-07T12:31:16;4.10;99.90
55369;DHT22;41247;49.736;8.752;2022-12-07T12:35:29;4.10;99.90
55369;DHT22;41247;49.736;8.752;2022-12-07T12:39:16;4.20;99.90
55369;DHT22;41247;49.736;8.752;2022-12-07T12:42:59;4.20;99.90
55369;DHT22;41247;49.736;8.752;2022-12-07T12:50:36;4.00;99.90
55369;DHT22;41247;49.736;8.752;2022-12-07T13:06:32;3.80;99.90
55369;DHT22;41247;49.736;8.752;2022-12-07T13:14:41;3.80;99.90
55369;DHT22;41247;49.736;8.752;2022-12-07T13:30:01;3.70;99.90
55369;DHT22;41247;49.736;8.752;2022-12-07T13:33:46;3.70;99.90
55369;DHT22;41247;49.736;8.752;2022-12-07T13:37:29;3.80;99.90
55369;DHT22;41247;49.736;8.752;2022-12-07T13:41:17;3.80;99.90
55369;DHT22;41247;49.736;8.752;2022-12-07T13:45:16;3.80;99.90
55369;DHT22;41247;49.736;8.752;2022-12-07T13:49:02;3.80;99.90
55369;DHT22;41247;49.736;8.752;2022-12-07T13:52:46;3.70;99.90
55369;DHT22;41247;49.736;8.752;2022-12-07T13:56:32;3.70;99.90
55369;DHT22;41247;49.736;8.752;2022-12-07T14:00:25;3.70;99.90
55369;DHT22;41247;49.736;8.752;2022-12-07T14:04:19;3.60;99.90
55369;DHT22;41247;49.736;8.752;2022-12-07T14:11:57;3.60;99.90
55369;DHT22;41247;49.736;8.752;2022-12-07T14:15:38;3.50;99.90
55369;DHT22;41247;49.736;8.752;2022-12-07T14:19:48;3.50;99.90
55369;DHT22;41247;49.736;8.752;2022-12-07T14:23:36;3.50;99.90
55369;DHT22;41247;49.736;8.752;2022-12-07T14:27:20;3.50;99.90
55369;DHT22;41247;49.736;8.752;2022-12-07T14:31:03;3.50;99.90
55369;DHT22;41247;49.736;8.752;2022-12-07T14:35:10;3.50;99.90
55369;DHT22;41247;49.736;8.752;2022-12-07T14:38:52;3.50;99.90
55369;DHT22;41247;49.736;8.752;2022-12-07T14:42:33;3.40;99.90
55369;DHT22;41247;49.736;8.752;2022-12-07T14:46:14;3.30;99.90
55369;DHT22;41247;49.736;8.752;2022-12-07T14:49:55;3.20;99.90
55369;DHT22;41247;49.736;8.752;2022-12-07T14:53:41;3.20;99.90
55369;DHT22;41247;49.736;8.752;2022-12-07T14:57:24;3.20;99.90
55369;DHT22;41247;49.736;8.752;2022-12-07T15:01:04;3.10;99.90
55369;DHT22;41247;49.736;8.752;2022-12-07T15:04:45;3.10;99.90
55369;DHT22;41247;49.736;8.752;2022-12-07T15:08:26;3.20;99.90
55369;DHT22;41247;49.736;8.752;2022-12-07T15:12:07;3.20;99.90
55369;DHT22;41247;49.736;8.752;2022-12-07T15:15:48;3.20;99.90
55369;DHT22;41247;49.736;8.752;2022-12-07T15:19:30;3.10;99.90
55369;DHT22;41247;49.736;8.752;2022-12-07T15:23:12;3.10;99.90
55369;DHT22;41247;49.736;8.752;2022-12-07T15:26:53;3.00;99.90
55369;DHT22;41247;49.736;8.752;2022-12-07T15:30:36;3.00;99.90
55369;DHT22;41247;49.736;8.752;2022-12-07T15:34:20;3.00;99.90
55369;DHT22;41247;49.736;8.752;2022-12-07T15:38:00;3.00;99.90
55369;DHT22;41247;49.736;8.752;2022-12-07T15:41:41;3.00;99.90
55369;DHT22;41247;49.736;8.752;2022-12-07T15:45:22;3.00;99.90
55369;DHT22;41247;49.736;8.752;2022-12-07T15:49:06;3.00;99.90
55369;DHT22;41247;49.736;8.752;2022-12-07T15:52:50;3.00;99.90
55369;DHT22;41247;49.736;8.752;2022-12-07T15:56:30;3.00;99.90
55369;DHT22;41247;49.736;8.752;2022-12-07T16:00:11;3.00;99.90
55369;DHT22;41247;49.736;8.752;2022-12-07T16:03:52;2.90;99.90
55369;DHT22;41247;49.736;8.752;2022-12-07T16:07:33;2.90;99.90
55369;DHT22;41247;49.736;8.752;2022-12-07T16:11:13;2.90;99.90
55369;DHT22;41247;49.736;8.752;2022-12-07T16:14:54;2.90;99.90
55369;DHT22;41247;49.736;8.752;2022-12-07T16:18:35;2.90;99.90
55369;DHT22;41247;49.736;8.752;2022-12-07T16:22:15;2.90;99.90
55369;DHT22;41247;49.736;8.752;2022-12-07T16:26:07;2.90;99.90
55369;DHT22;41247;49.736;8.752;2022-12-07T16:29:49;2.90;99.90
55369;DHT22;41247;49.736;8.752;2022-12-07T16:33:29;2.90;99.90
55369;DHT22;41247;49.736;8.752;2022-12-07T16:37:10;2.90;99.90
55369;DHT22;41247;49.736;8.752;2022-12-07T16:40:52;2.90;99.90
55369;DHT22;41247;49.736;8.752;2022-12-07T16:44:33;2.90;99.90
55369;DHT22;41247;49.736;8.752;2022-12-07T16:48:14;2.90;99.90
55369;DHT22;41247;49.736;8.752;2022-12-07T16:51:55;3.00;99.90
55369;DHT22;41247;49.736;8.752;2022-12-07T16:55:40;3.00;99.90
55369;DHT22;41247;49.736;8.752;2022-12-07T16:59:24;3.00;99.90
55369;DHT22;41247;49.736;8.752;2022-12-07T17:03:05;2.90;99.90
55369;DHT22;41247;49.736;8.752;2022-12-07T17:06:46;3.00;99.90
55369;DHT22;41247;49.736;8.752;2022-12-07T17:10:27;2.90;99.90
55369;DHT22;41247;49.736;8.752;2022-12-07T17:14:08;3.00;99.90
55369;DHT22;41247;49.736;8.752;2022-12-07T17:17:53;3.00;99.90
55369;DHT22;41247;49.736;8.752;2022-12-07T17:21:35;3.00;99.90
55369;DHT22;41247;49.736;8.752;2022-12-07T17:25:17;3.00;99.90
55369;DHT22;41247;49.736;8.752;2022-12-07T17:28:58;3.00;99.90
55369;DHT22;41247;49.736;8.752;2022-12-07T17:32:39;3.00;99.90
55369;DHT22;41247;49.736;8.752;2022-12-07T17:36:25;3.00;99.90
55369;DHT22;41247;49.736;8.752;2022-12-07T17:40:07;3.00;99.90
55369;DHT22;41247;49.736;8.752;2022-12-07T17:43:47;3.00;99.90
55369;DHT22;41247;49.736;8.752;2022-12-07T17:47:28;3.00;99.90
55369;DHT22;41247;49.736;8.752;2022-12-07T17:51:09;3.00;99.90
55369;DHT22;41247;49.736;8.752;2022-12-07T17:54:49;3.00;99.90
55369;DHT22;41247;49.736;8.752;2022-12-07T17:58:30;2.90;99.90
55369;DHT22;41247;49.736;8.752;2022-12-07T18:02:11;2.90;99.90
55369;DHT22;41247;49.736;8.752;2022-12-07T18:05:54;2.90;99.90
55369;DHT22;41247;49.736;8.752;2022-12-07T18:09:54;2.90;99.90
55369;DHT22;41247;49.736;8.752;2022-12-07T18:14:51;2.80;99.90
55369;DHT22;41247;49.736;8.752;2022-12-07T18:18:33;2.80;99.90
55369;DHT22;41247;49.736;8.752;2022-12-07T18:22:14;2.80;99.90
55369;DHT22;41247;49.736;8.752;2022-12-07T18:25:55;2.80;99.90
55369;DHT22;41247;49.736;8.752;2022-12-07T18:29:35;2.80;99.90
55369;DHT22;41247;49.736;8.752;2022-12-07T18:33:17;2.70;99.90
55369;DHT22;41247;49.736;8.752;2022-12-07T18:36:58;2.70;99.90
55369;DHT22;41247;49.736;8.752;2022-12-07T18:40:39;2.70;99.90
55369;DHT22;41247;49.736;8.752;2022-12-07T18:44:21;2.70;99.90
55369;DHT22;41247;49.736;8.752;2022-12-07T18:48:01;2.60;99.90
55369;DHT22;41247;49.736;8.752;2022-12-07T18:51:43;2.60;99.90
55369;DHT22;41247;49.736;8.752;2022-12-07T18:55:24;2.60;99.90
55369;DHT22;41247;49.736;8.752;2022-12-07T18:59:06;2.60;99.90
55369;DHT22;41247;49.736;8.752;2022-12-07T19:02:46;2.60;99.90
55369;DHT22;41247;49.736;8.752;2022-12-07T19:06:28;2.50;99.90
55369;DHT22;41247;49.736;8.752;2022-12-07T19:10:10;2.60;99.90
55369;DHT22;41247;49.736;8.752;2022-12-07T19:13:50;2.60;99.90
55369;DHT22;41247;49.736;8.752;2022-12-07T19:17:31;2.50;99.90
55369;DHT22;41247;49.736;8.752;2022-12-07T19:21:12;2.50;99.90
55369;DHT22;41247;49.736;8.752;2022-12-07T19:24:53;2.50;99.90
55369;DHT22;41247;49.736;8.752;2022-12-07T19:28:34;2.50;99.90
55369;DHT22;41247;49.736;8.752;2022-12-07T19:32:15;2.50;99.90
55369;DHT22;41247;49.736;8.752;2022-12-07T19:35:57;2.50;99.90
55369;DHT22;41247;49.736;8.752;2022-12-07T19:39:38;2.40;99.90
55369;DHT22;41247;49.736;8.752;2022-12-07T19:43:20;2.50;99.90
55369;DHT22;41247;49.736;8.752;2022-12-07T19:47:02;2.40;99.90
55369;DHT22;41247;49.736;8.752;2022-12-07T19:50:43;2.40;99.90
55369;DHT22;41247;49.736;8.752;2022-12-07T19:54:27;2.40;99.90
55369;DHT22;41247;49.736;8.752;2022-12-07T19:58:08;2.30;99.90
55369;DHT22;41247;49.736;8.752;2022-12-07T20:01:49;2.30;99.90
55369;DHT22;41247;49.736;8.752;2022-12-07T20:05:30;2.30;99.90
55369;DHT22;41247;49.736;8.752;2022-12-07T20:09:12;2.30;99.90
55369;DHT22;41247;49.736;8.752;2022-12-07T20:12:53;2.20;99.90
55369;DHT22;41247;49.736;8.752;2022-12-07T20:16:34;2.20;99.90
55369;DHT22;41247;49.736;8.752;2022-12-07T20:20:15;2.20;99.90
55369;DHT22;41247;49.736;8.752;2022-12-07T20:23:59;2.20;99.90
55369;DHT22;41247;49.736;8.752;2022-12-07T20:27:40;2.20;99.90
55369;DHT22;41247;49.736;8.752;2022-12-07T20:31:20;2.20;99.90
55369;DHT22;41247;49.736;8.752;2022-12-07T20:35:01;2.20;99.90
55369;DHT22;41247;49.736;8.752;2022-12-07T20:38:43;2.20;99.90
55369;DHT22;41247;49.736;8.752;2022-12-07T20:42:26;2.20;99.90
55369;DHT22;41247;49.736;8.752;2022-12-07T20:46:10;2.20;99.90
55369;DHT22;41247;49.736;8.752;2022-12-07T20:49:51;2.20;99.90
55369;DHT22;41247;49.736;8.752;2022-12-07T20:53:32;2.20;99.90
55369;DHT22;41247;49.736;8.752;2022-12-07T20:57:12;2.20;99.90
55369;DHT22;41247;49.736;8.752;2022-12-07T21:00:59;2.20;99.90
55369;DHT22;41247;49.736;8.752;2022-12-07T21:04:40;2.20;99.90
55369;DHT22;41247;49.736;8.752;2022-12-07T21:08:21;2.20;99.90
55369;DHT22;41247;49.736;8.752;2022-12-07T21:12:01;2.20;99.90
55369;DHT22;41247;49.736;8.752;2022-12-07T21:15:42;2.30;99.90
55369;DHT22;41247;49.736;8.752;2022-12-07T21:19:23;2.20;99.90
55369;DHT22;41247;49.736;8.752;2022-12-07T21:23:03;2.20;99.90
55369;DHT22;41247;49.736;8.752;2022-12-07T21:26:44;2.30;99.90
55369;DHT22;41247;49.736;8.752;2022-12-07T21:30:25;2.20;99.90
55369;DHT22;41247;49.736;8.752;2022-12-07T21:34:05;2.20;99.90
55369;DHT22;41247;49.736;8.752;2022-12-07T21:37:46;2.20;99.90
55369;DHT22;41247;49.736;8.752;2022-12-07T21:41:29;2.20;99.90
55369;DHT22;41247;49.736;8.752;2022-12-07T21:45:13;2.20;99.90
55369;DHT22;41247;49.736;8.752;2022-12-07T21:49:02;2.20;99.90
55369;DHT22;41247;49.736;8.752;2022-12-07T21:52:43;2.10;99.90
55369;DHT22;41247;49.736;8.752;2022-12-07T21:56:32;2.10;99.90
55369;DHT22;41247;49.736;8.752;2022-12-07T22:00:15;2.20;99.90
55369;DHT22;41247;49.736;8.752;2022-12-07T22:03:56;2.20;99.90
55369;DHT22;41247;49.736;8.752;2022-12-07T22:07:36;2.10;99.90
55369;DHT22;41247;49.736;8.752;2022-12-07T22:11:17;2.10;99.90
55369;DHT22;41247;49.736;8.752;2022-12-07T22:14:58;2.10;99.90
55369;DHT22;41247;49.736;8.752;2022-12-07T22:18:39;2.20;99.90
55369;DHT22;41247;49.736;8.752;2022-12-07T22:22:19;2.20;99.90
55369;DHT22;41247;49.736;8.752;2022-12-07T22:26:05;2.20;99.90
55369;DHT22;41247;49.736;8.752;2022-12-07T22:29:46;2.20;99.90
55369;DHT22;41247;49.736;8.752;2022-12-07T22:33:27;2.20;99.90
55369;DHT22;41247;49.736;8.752;2022-12-07T22:37:07;2.20;99.90
55369;DHT22;41247;49.736;8.752;2022-12-07T22:40:48;2.20;99.90
55369;DHT22;41247;49.736;8.752;2022-12-07T22:44:28;2.20;99.90
55369;DHT22;41247;49.736;8.752;2022-12-07T22:48:09;2.20;99.90
55369;DHT22;41247;49.736;8.752;2022-12-07T22:51:49;2.20;99.90
55369;DHT22;41247;49.736;8.752;2022-12-07T22:55:30;2.20;99.90
55369;DHT22;41247;49.736;8.752;2022-12-07T22:59:12;2.20;99.90
55369;DHT22;41247;49.736;8.752;2022-12-07T23:02:53;2.20;99.90
55369;DHT22;41247;49.736;8.752;2022-12-07T23:06:34;2.10;99.90
55369;DHT22;41247;49.736;8.752;2022-12-07T23:10:14;2.10;99.90
55369;DHT22;41247;49.736;8.752;2022-12-07T23:14:00;2.10;99.90
55369;DHT22;41247;49.736;8.752;2022-12-07T23:17:42;2.10;99.90
55369;DHT22;41247;49.736;8.752;2022-12-07T23:21:22;2.10;99.90
55369;DHT22;41247;49.736;8.752;2022-12-07T23:25:05;2.10;99.90
55369;DHT22;41247;49.736;8.752;2022-12-07T23:28:46;2.10;99.90
55369;DHT22;41247;49.736;8.752;2022-12-07T23:32:26;2.10;99.90
55369;DHT22;41247;49.736;8.752;2022-12-07T23:36:17;2.10;99.90
55369;DHT22;41247;49.736;8.752;2022-12-07T23:40:02;2.10;99.90
55369;DHT22;41247;49.736;8.752;2022-12-07T23:43:44;2.00;99.90
55369;DHT22;41247;49.736;8.752;2022-12-07T23:47:36;2.00;99.90
55369;DHT22;41247;49.736;8.752;2022-12-07T23:51:18;2.00;99.90
55369;DHT22;41247;49.736;8.752;2022-12-07T23:54:59;2.10;99.90
55369;DHT22;41247;49.736;8.752;2022-12-07T23:58:39;2.10;99.90
